Main page
METAR-TAF:

METAR-TAF

Airports :

Cambridge, England

Cambridge Airport

latitude: 52-12N, longitude: 000-11E, elevation: 15 m

Current weather observation

The report was made 4 hours and 19 minutes ago, at 17:50 UTC
Wind 7 kt from the North
Temperature 10°C
Humidity 93%
Pressure 1015 hPa
Visibility: 4200 m
Broken clouds at a height of 300 ft
mist

METAR: EGSC 191750Z 35007KT 4200 BR BKN003 10/09 Q1015

Time: 22:09 (22:09 UTC)

Forecast

The report was made 5 hours and 9 minutes ago, at 17:00 UTC
Forecast valid from 19 at 18 UTC to 19 at 21 UTC
Wind 8 kt from the North
Visibility: 2000 m
Overcast at a height of 200 ft
light rain, drizzle, mist
Temporary
from 19 at 18 UTC to 19 at 21 UTC
Visibility: 6000 m
Broken clouds at a height of 500 ft
rain, drizzle

TAF: EGSC 191700Z 1918/1921 35008KT 2000 -RADZ BR OVC002 TEMPO 1918/1921 6000 RADZ BKN005

Weather observations and forecasts of more than 4000 airports (METAR and TAF reports).

The available stations are represented by yellow and red dots on the map.

Hover mouse over dot to see the name of the station.

Then click to see weather observations and forecasts.

To change the map : click on the green buttons with a black cross to zoom in, on the green button with a dash to zoom out, or on the green arrows for adjacent maps.


METAR-TAF: